Airfield :
LOGIN :

Register | Disclaimer

   EN    FR    IT 

 










Legend :    VFR   Marginal VFR   IFR   Intensive IFR   Very Intensive IFR
Visi :
Ceiling :
>= 8 km
>= 3000ft
5 to 8 km
1000 to 3000 ft
1500m to 5 km
500 to 1000 ft
800 to 1500m
200 to 500 ft
< 800m
< 200 ft
Symbols :   Thunderstorms  Fog  Heavy snow  Heavy precipitations  Wind > 20 kt
SIGMETs :     Misc.  Thunderstorms  Icing  Turbulence  Mountain Waves  Volcanic Ashes






- Airport Elevation : 137 ft
- IATA code : THN


ESGT - Trollhattan-Vanersborg

CURRENT METAR :
  • 110450Z 19021G29KT 5000 RA BKN005 OVC010 04/02 Q0997

EXPIRED METARs :
  • 110420Z AUTO 18019G29KT 7000 R15/P2000N R33///// RA SCT005/// OVC010/// 03/02 Q0997
  • 110350Z AUTO 19021G31KT 4800 R15/P2000N R33///// RA FEW005/// OVC010/// 03/02 Q0997
  • 110320Z AUTO 19020KT 5000 R15/P2000N R33///// RA OVC010/// 04/02 Q0997
  • 110250Z AUTO 19022KT 9000 R15/P2000N R33///// -RA SCT005/// BKN009/// OVC011/// 04/02 Q0997
  • 110220Z AUTO 17021KT 4400 R15/P2000N R33///// OVC005/// 04/02 Q0998 REDZ

Expired Forecast.



MET'MAP, your aeronautical weather chart ! - Copyright ORBIFLY December 2007 - Disclaimer

ORBIFLY MET'MAP TEAM :

Programming & Development : Alexandra Zaïnal
Concept & original design : Baudouin d'Aumeries
Assistance for programming : Marc-Olivier Méhu
Technical & hardware support : Manuel Goepfert

Contact : metmap@orbifly.com




SOURCES & CREDITS :

   NOAA